Aviation Digital Data Service (ADDS)

Output produced by METARs form (0136 UTC 23 November 2017)
found at http://www.aviationweather.gov/adds/metars/
 
DRRN 230100Z 03005KT 010V100 3500 DU NSC 26/M00 Q1011 TEMPO 2500
TAF COR DRRN 222300Z 2300/2406 06008KT 3500 DU NSC 
     TEMPO 2306/2312 10020KT 2000 BLDU
       
TAF DRZA 222300Z 2300/2324 08012KT 8000 NSC 
     BECMG 2304/2306 2500 DU 
     TEMPO 2307/2313 12025KT 0800 BLDU 
     BECMG 2316/2318 6000 NSW
       
TAF DRZR 222300Z 2300/2324 06010KT 3500 DU NSC 
     BECMG 2302/2304 1200 
     TEMPO 2306/2312 0600 
     BECMG 2316/2318 3500